sensor_id;sensor_type;location;lat;lon;timestamp;P1;durP1;ratioP1;P2;durP2;ratioP2
16928;SDS011;8581;47.334;11.190;2022-11-15T00:00:55;2.80;;;2.50;;
16928;SDS011;8581;47.334;11.190;2022-11-15T00:03:27;2.70;;;2.50;;
16928;SDS011;8581;47.334;11.190;2022-11-15T00:06:02;2.50;;;2.30;;
16928;SDS011;8581;47.334;11.190;2022-11-15T00:08:32;2.67;;;2.47;;
16928;SDS011;8581;47.334;11.190;2022-11-15T00:11:04;3.30;;;2.93;;
16928;SDS011;8581;47.334;11.190;2022-11-15T00:13:36;4.63;;;2.70;;
16928;SDS011;8581;47.334;11.190;2022-11-15T00:16:08;3.17;;;2.87;;
16928;SDS011;8581;47.334;11.190;2022-11-15T00:18:39;3.07;;;2.70;;
16928;SDS011;8581;47.334;11.190;2022-11-15T00:21:11;2.70;;;2.50;;
16928;SDS011;8581;47.334;11.190;2022-11-15T00:23:42;2.70;;;2.50;;
16928;SDS011;8581;47.334;11.190;2022-11-15T00:26:14;2.80;;;2.60;;
16928;SDS011;8581;47.334;11.190;2022-11-15T00:28:46;2.70;;;2.50;;
16928;SDS011;8581;47.334;11.190;2022-11-15T00:31:17;2.70;;;2.50;;
16928;SDS011;8581;47.334;11.190;2022-11-15T00:33:49;2.80;;;2.60;;
16928;SDS011;8581;47.334;11.190;2022-11-15T00:36:20;3.13;;;2.90;;
16928;SDS011;8581;47.334;11.190;2022-11-15T00:38:52;2.80;;;2.60;;
16928;SDS011;8581;47.334;11.190;2022-11-15T00:41:24;2.77;;;2.57;;
16928;SDS011;8581;47.334;11.190;2022-11-15T00:43:55;2.80;;;2.60;;
16928;SDS011;8581;47.334;11.190;2022-11-15T00:46:27;3.43;;;2.70;;
16928;SDS011;8581;47.334;11.190;2022-11-15T00:48:58;3.07;;;2.77;;
16928;SDS011;8581;47.334;11.190;2022-11-15T00:51:30;3.00;;;2.80;;
16928;SDS011;8581;47.334;11.190;2022-11-15T00:54:02;3.03;;;2.83;;
16928;SDS011;8581;47.334;11.190;2022-11-15T00:56:33;2.67;;;2.47;;
16928;SDS011;8581;47.334;11.190;2022-11-15T00:59:05;3.33;;;3.00;;
16928;SDS011;8581;47.334;11.190;2022-11-15T01:01:36;3.00;;;2.70;;
16928;SDS011;8581;47.334;11.190;2022-11-15T01:04:08;2.60;;;2.40;;
16928;SDS011;8581;47.334;11.190;2022-11-15T01:06:40;2.60;;;2.40;;
16928;SDS011;8581;47.334;11.190;2022-11-15T01:09:11;2.70;;;2.50;;
16928;SDS011;8581;47.334;11.190;2022-11-15T01:11:43;2.77;;;2.57;;
16928;SDS011;8581;47.334;11.190;2022-11-15T01:14:14;2.60;;;2.40;;
16928;SDS011;8581;47.334;11.190;2022-11-15T01:16:46;2.87;;;2.67;;
16928;SDS011;8581;47.334;11.190;2022-11-15T01:19:18;2.93;;;2.73;;
16928;SDS011;8581;47.334;11.190;2022-11-15T01:21:49;3.23;;;2.93;;
16928;SDS011;8581;47.334;11.190;2022-11-15T01:24:21;3.37;;;3.07;;
16928;SDS011;8581;47.334;11.190;2022-11-15T01:26:52;4.03;;;3.63;;
16928;SDS011;8581;47.334;11.190;2022-11-15T01:29:24;4.00;;;3.53;;
16928;SDS011;8581;47.334;11.190;2022-11-15T01:31:56;4.83;;;4.00;;
16928;SDS011;8581;47.334;11.190;2022-11-15T01:34:27;3.70;;;3.30;;
16928;SDS011;8581;47.334;11.190;2022-11-15T01:36:59;3.63;;;3.33;;
16928;SDS011;8581;47.334;11.190;2022-11-15T01:39:30;3.53;;;3.23;;
16928;SDS011;8581;47.334;11.190;2022-11-15T01:42:02;4.07;;;3.53;;
16928;SDS011;8581;47.334;11.190;2022-11-15T01:44:39;3.83;;;3.50;;
16928;SDS011;8581;47.334;11.190;2022-11-15T01:47:13;3.97;;;3.60;;
16928;SDS011;8581;47.334;11.190;2022-11-15T01:49:47;3.40;;;3.10;;
16928;SDS011;8581;47.334;11.190;2022-11-15T01:52:31;3.43;;;3.13;;
16928;SDS011;8581;47.334;11.190;2022-11-15T01:55:06;3.90;;;3.60;;
16928;SDS011;8581;47.334;11.190;2022-11-15T01:57:37;4.90;;;3.53;;
16928;SDS011;8581;47.334;11.190;2022-11-15T02:00:09;4.10;;;3.23;;
16928;SDS011;8581;47.334;11.190;2022-11-15T02:02:41;3.60;;;3.30;;
16928;SDS011;8581;47.334;11.190;2022-11-15T02:05:13;3.57;;;3.27;;
16928;SDS011;8581;47.334;11.190;2022-11-15T02:07:44;3.07;;;2.87;;
16928;SDS011;8581;47.334;11.190;2022-11-15T02:10:17;4.10;;;3.37;;
16928;SDS011;8581;47.334;11.190;2022-11-15T02:12:48;3.80;;;3.40;;
16928;SDS011;8581;47.334;11.190;2022-11-15T02:15:21;4.30;;;3.90;;
16928;SDS011;8581;47.334;11.190;2022-11-15T02:21:07;4.60;;;4.10;;
16928;SDS011;8581;47.334;11.190;2022-11-15T02:29:06;5.17;;;3.87;;
16928;SDS011;8581;47.334;11.190;2022-11-15T02:31:48;3.70;;;3.40;;
16928;SDS011;8581;47.334;11.190;2022-11-15T02:37:34;5.00;;;3.10;;
16928;SDS011;8581;47.334;11.190;2022-11-15T02:40:10;4.27;;;3.50;;
16928;SDS011;8581;47.334;11.190;2022-11-15T02:42:45;3.47;;;3.00;;
16928;SDS011;8581;47.334;11.190;2022-11-15T02:45:25;4.63;;;3.57;;
16928;SDS011;8581;47.334;11.190;2022-11-15T02:47:58;3.47;;;3.17;;
16928;SDS011;8581;47.334;11.190;2022-11-15T02:50:30;3.57;;;3.27;;
16928;SDS011;8581;47.334;11.190;2022-11-15T02:53:01;3.13;;;2.93;;
16928;SDS011;8581;47.334;11.190;2022-11-15T02:55:35;3.50;;;3.20;;
16928;SDS011;8581;47.334;11.190;2022-11-15T02:58:19;3.40;;;3.10;;
16928;SDS011;8581;47.334;11.190;2022-11-15T03:00:47;3.20;;;2.90;;
16928;SDS011;8581;47.334;11.190;2022-11-15T03:03:30;3.60;;;3.30;;
16928;SDS011;8581;47.334;11.190;2022-11-15T03:06:11;3.10;;;2.90;;
16928;SDS011;8581;47.334;11.190;2022-11-15T03:08:52;3.43;;;3.13;;
16928;SDS011;8581;47.334;11.190;2022-11-15T03:11:22;4.13;;;2.80;;
16928;SDS011;8581;47.334;11.190;2022-11-15T03:13:57;3.50;;;3.20;;
16928;SDS011;8581;47.334;11.190;2022-11-15T03:16:34;3.33;;;3.03;;
16928;SDS011;8581;47.334;11.190;2022-11-15T03:19:12;3.13;;;2.83;;
16928;SDS011;8581;47.334;11.190;2022-11-15T03:21:44;3.87;;;3.00;;
16928;SDS011;8581;47.334;11.190;2022-11-15T03:24:16;3.37;;;3.07;;
16928;SDS011;8581;47.334;11.190;2022-11-15T03:26:47;3.07;;;2.87;;
16928;SDS011;8581;47.334;11.190;2022-11-15T03:29:22;3.50;;;3.20;;
16928;SDS011;8581;47.334;11.190;2022-11-15T03:31:53;2.87;;;2.67;;
16928;SDS011;8581;47.334;11.190;2022-11-15T03:34:27;3.30;;;3.00;;
16928;SDS011;8581;47.334;11.190;2022-11-15T03:36:58;2.90;;;2.70;;
16928;SDS011;8581;47.334;11.190;2022-11-15T03:39:30;2.77;;;2.57;;
16928;SDS011;8581;47.334;11.190;2022-11-15T03:42:04;3.07;;;2.77;;
16928;SDS011;8581;47.334;11.190;2022-11-15T03:44:41;3.00;;;2.80;;
16928;SDS011;8581;47.334;11.190;2022-11-15T03:47:17;3.23;;;2.63;;
16928;SDS011;8581;47.334;11.190;2022-11-15T03:50:04;2.93;;;2.73;;
16928;SDS011;8581;47.334;11.190;2022-11-15T03:52:34;2.63;;;2.43;;
16928;SDS011;8581;47.334;11.190;2022-11-15T03:55:07;2.90;;;2.70;;
16928;SDS011;8581;47.334;11.190;2022-11-15T03:57:39;2.77;;;2.57;;
16928;SDS011;8581;47.334;11.190;2022-11-15T04:00:11;3.03;;;2.80;;
16928;SDS011;8581;47.334;11.190;2022-11-15T04:02:43;3.40;;;3.10;;
16928;SDS011;8581;47.334;11.190;2022-11-15T04:05:14;3.60;;;3.30;;
16928;SDS011;8581;47.334;11.190;2022-11-15T04:07:46;3.60;;;3.27;;
16928;SDS011;8581;47.334;11.190;2022-11-15T04:10:18;3.60;;;3.30;;
16928;SDS011;8581;47.334;11.190;2022-11-15T04:12:49;3.50;;;3.20;;
16928;SDS011;8581;47.334;11.190;2022-11-15T04:15:22;3.57;;;3.17;;
16928;SDS011;8581;47.334;11.190;2022-11-15T04:17:54;3.40;;;2.97;;
16928;SDS011;8581;47.334;11.190;2022-11-15T04:20:25;3.87;;;3.57;;
16928;SDS011;8581;47.334;11.190;2022-11-15T04:23:02;3.43;;;3.13;;
16928;SDS011;8581;47.334;11.190;2022-11-15T04:25:39;2.90;;;2.70;;
16928;SDS011;8581;47.334;11.190;2022-11-15T04:28:11;3.40;;;3.10;;
16928;SDS011;8581;47.334;11.190;2022-11-15T04:30:42;3.10;;;2.90;;
16928;SDS011;8581;47.334;11.190;2022-11-15T04:33:14;3.50;;;3.03;;
16928;SDS011;8581;47.334;11.190;2022-11-15T04:35:45;3.73;;;3.40;;
16928;SDS011;8581;47.334;11.190;2022-11-15T04:38:17;3.57;;;3.27;;
16928;SDS011;8581;47.334;11.190;2022-11-15T04:40:48;3.03;;;2.83;;
16928;SDS011;8581;47.334;11.190;2022-11-15T04:43:20;4.23;;;2.73;;
16928;SDS011;8581;47.334;11.190;2022-11-15T04:45:51;3.37;;;3.07;;
16928;SDS011;8581;47.334;11.190;2022-11-15T04:48:23;3.80;;;3.17;;
16928;SDS011;8581;47.334;11.190;2022-11-15T04:50:55;3.60;;;3.30;;
16928;SDS011;8581;47.334;11.190;2022-11-15T04:53:26;3.50;;;2.87;;
16928;SDS011;8581;47.334;11.190;2022-11-15T04:55:58;3.73;;;3.17;;
16928;SDS011;8581;47.334;11.190;2022-11-15T04:58:29;3.80;;;3.50;;
16928;SDS011;8581;47.334;11.190;2022-11-15T05:01:07;3.67;;;3.30;;
16928;SDS011;8581;47.334;11.190;2022-11-15T05:03:40;3.57;;;3.27;;
16928;SDS011;8581;47.334;11.190;2022-11-15T05:06:17;4.53;;;3.23;;
16928;SDS011;8581;47.334;11.190;2022-11-15T05:08:48;3.30;;;3.00;;
16928;SDS011;8581;47.334;11.190;2022-11-15T05:11:20;3.83;;;2.97;;
16928;SDS011;8581;47.334;11.190;2022-11-15T05:13:52;3.47;;;3.17;;
16928;SDS011;8581;47.334;11.190;2022-11-15T05:16:23;3.47;;;3.07;;
16928;SDS011;8581;47.334;11.190;2022-11-15T05:18:55;4.83;;;3.10;;
16928;SDS011;8581;47.334;11.190;2022-11-15T05:21:26;3.80;;;2.97;;
16928;SDS011;8581;47.334;11.190;2022-11-15T05:23:58;3.37;;;3.07;;
16928;SDS011;8581;47.334;11.190;2022-11-15T05:26:30;3.37;;;3.07;;
16928;SDS011;8581;47.334;11.190;2022-11-15T05:29:01;2.83;;;2.50;;
16928;SDS011;8581;47.334;11.190;2022-11-15T05:31:33;3.70;;;3.10;;
16928;SDS011;8581;47.334;11.190;2022-11-15T05:34:04;4.07;;;3.03;;
16928;SDS011;8581;47.334;11.190;2022-11-15T05:36:37;3.60;;;3.30;;
16928;SDS011;8581;47.334;11.190;2022-11-15T05:39:08;3.27;;;2.97;;
16928;SDS011;8581;47.334;11.190;2022-11-15T05:41:43;3.00;;;2.80;;
16928;SDS011;8581;47.334;11.190;2022-11-15T05:44:16;3.10;;;2.90;;
16928;SDS011;8581;47.334;11.190;2022-11-15T05:46:47;3.83;;;3.43;;
16928;SDS011;8581;47.334;11.190;2022-11-15T05:49:20;3.37;;;3.07;;
16928;SDS011;8581;47.334;11.190;2022-11-15T05:51:50;3.30;;;3.00;;
16928;SDS011;8581;47.334;11.190;2022-11-15T05:54:22;4.50;;;2.57;;
16928;SDS011;8581;47.334;11.190;2022-11-15T05:56:54;2.93;;;2.73;;
16928;SDS011;8581;47.334;11.190;2022-11-15T05:59:25;5.90;;;3.00;;
16928;SDS011;8581;47.334;11.190;2022-11-15T06:01:57;6.53;;;3.20;;
16928;SDS011;8581;47.334;11.190;2022-11-15T06:04:28;4.47;;;3.23;;
16928;SDS011;8581;47.334;11.190;2022-11-15T06:07:00;3.23;;;2.93;;
16928;SDS011;8581;47.334;11.190;2022-11-15T06:09:32;5.20;;;2.90;;
16928;SDS011;8581;47.334;11.190;2022-11-15T06:12:03;8.00;;;3.20;;
16928;SDS011;8581;47.334;11.190;2022-11-15T06:14:35;3.30;;;3.00;;
16928;SDS011;8581;47.334;11.190;2022-11-15T06:17:07;3.83;;;3.40;;
16928;SDS011;8581;47.334;11.190;2022-11-15T06:19:39;4.83;;;3.13;;
16928;SDS011;8581;47.334;11.190;2022-11-15T06:22:11;3.93;;;3.53;;
16928;SDS011;8581;47.334;11.190;2022-11-15T06:24:42;5.40;;;3.53;;
16928;SDS011;8581;47.334;11.190;2022-11-15T06:27:14;3.97;;;3.57;;
16928;SDS011;8581;47.334;11.190;2022-11-15T06:29:45;7.00;;;3.77;;
16928;SDS011;8581;47.334;11.190;2022-11-15T06:32:17;4.17;;;3.83;;
16928;SDS011;8581;47.334;11.190;2022-11-15T06:34:48;8.23;;;4.10;;
16928;SDS011;8581;47.334;11.190;2022-11-15T06:37:20;11.43;;;4.37;;
16928;SDS011;8581;47.334;11.190;2022-11-15T06:39:52;10.27;;;3.33;;
16928;SDS011;8581;47.334;11.190;2022-11-15T06:42:23;4.47;;;3.50;;
16928;SDS011;8581;47.334;11.190;2022-11-15T06:44:55;4.83;;;3.30;;
16928;SDS011;8581;47.334;11.190;2022-11-15T06:47:26;9.87;;;5.97;;
16928;SDS011;8581;47.334;11.190;2022-11-15T06:49:58;6.77;;;5.83;;
16928;SDS011;8581;47.334;11.190;2022-11-15T06:52:30;6.53;;;5.30;;
16928;SDS011;8581;47.334;11.190;2022-11-15T06:55:01;5.53;;;5.03;;
16928;SDS011;8581;47.334;11.190;2022-11-15T06:57:33;7.97;;;5.97;;
16928;SDS011;8581;47.334;11.190;2022-11-15T07:00:05;4.77;;;4.37;;
16928;SDS011;8581;47.334;11.190;2022-11-15T07:02:37;6.97;;;6.37;;
16928;SDS011;8581;47.334;11.190;2022-11-15T07:05:09;6.33;;;4.47;;
16928;SDS011;8581;47.334;11.190;2022-11-15T07:07:40;4.67;;;3.20;;
16928;SDS011;8581;47.334;11.190;2022-11-15T07:10:12;2.23;;;2.03;;
16928;SDS011;8581;47.334;11.190;2022-11-15T07:12:46;2.50;;;2.30;;
16928;SDS011;8581;47.334;11.190;2022-11-15T07:15:15;2.33;;;2.13;;
16928;SDS011;8581;47.334;11.190;2022-11-15T07:17:47;5.47;;;3.57;;
16928;SDS011;8581;47.334;11.190;2022-11-15T07:20:18;4.47;;;3.77;;
16928;SDS011;8581;47.334;11.190;2022-11-15T07:22:50;5.87;;;3.63;;
16928;SDS011;8581;47.334;11.190;2022-11-15T07:25:21;5.00;;;3.23;;
16928;SDS011;8581;47.334;11.190;2022-11-15T07:27:55;4.47;;;3.33;;
16928;SDS011;8581;47.334;11.190;2022-11-15T07:30:26;4.23;;;3.47;;
16928;SDS011;8581;47.334;11.190;2022-11-15T07:32:58;5.07;;;4.00;;
16928;SDS011;8581;47.334;11.190;2022-11-15T07:35:30;4.13;;;3.07;;
16928;SDS011;8581;47.334;11.190;2022-11-15T07:38:02;4.50;;;3.33;;
16928;SDS011;8581;47.334;11.190;2022-11-15T07:40:33;8.77;;;3.40;;
16928;SDS011;8581;47.334;11.190;2022-11-15T07:43:05;4.00;;;2.97;;
16928;SDS011;8581;47.334;11.190;2022-11-15T07:45:40;5.73;;;3.40;;
16928;SDS011;8581;47.334;11.190;2022-11-15T07:48:10;4.43;;;3.10;;
16928;SDS011;8581;47.334;11.190;2022-11-15T07:50:42;5.73;;;4.20;;
16928;SDS011;8581;47.334;11.190;2022-11-15T07:53:14;5.97;;;4.37;;
16928;SDS011;8581;47.334;11.190;2022-11-15T07:55:45;4.37;;;3.17;;
16928;SDS011;8581;47.334;11.190;2022-11-15T07:58:17;5.40;;;3.80;;
16928;SDS011;8581;47.334;11.190;2022-11-15T08:00:48;5.17;;;3.10;;
16928;SDS011;8581;47.334;11.190;2022-11-15T08:03:20;5.13;;;2.73;;
16928;SDS011;8581;47.334;11.190;2022-11-15T08:05:52;4.23;;;2.73;;
16928;SDS011;8581;47.334;11.190;2022-11-15T08:08:23;5.17;;;3.20;;
16928;SDS011;8581;47.334;11.190;2022-11-15T08:10:57;3.73;;;3.00;;
16928;SDS011;8581;47.334;11.190;2022-11-15T08:13:27;6.00;;;2.70;;
16928;SDS011;8581;47.334;11.190;2022-11-15T08:15:59;2.03;;;1.77;;
16928;SDS011;8581;47.334;11.190;2022-11-15T08:18:31;2.93;;;1.60;;
16928;SDS011;8581;47.334;11.190;2022-11-15T08:21:05;4.23;;;1.40;;
16928;SDS011;8581;47.334;11.190;2022-11-15T08:23:36;2.63;;;1.00;;
16928;SDS011;8581;47.334;11.190;2022-11-15T08:26:08;2.80;;;1.37;;
16928;SDS011;8581;47.334;11.190;2022-11-15T08:28:40;1.83;;;1.00;;
16928;SDS011;8581;47.334;11.190;2022-11-15T08:31:16;1.70;;;1.10;;
16928;SDS011;8581;47.334;11.190;2022-11-15T08:33:47;2.17;;;1.17;;
16928;SDS011;8581;47.334;11.190;2022-11-15T08:36:18;1.97;;;1.50;;
16928;SDS011;8581;47.334;11.190;2022-11-15T08:38:50;2.73;;;1.50;;
16928;SDS011;8581;47.334;11.190;2022-11-15T08:41:25;1.33;;;1.10;;
16928;SDS011;8581;47.334;11.190;2022-11-15T08:43:56;8.03;;;1.80;;
16928;SDS011;8581;47.334;11.190;2022-11-15T08:46:27;3.77;;;1.40;;
16928;SDS011;8581;47.334;11.190;2022-11-15T08:48:59;2.90;;;0.93;;
16928;SDS011;8581;47.334;11.190;2022-11-15T08:51:31;1.13;;;0.97;;
16928;SDS011;8581;47.334;11.190;2022-11-15T08:54:02;1.73;;;1.10;;
16928;SDS011;8581;47.334;11.190;2022-11-15T08:56:34;7.83;;;3.77;;
16928;SDS011;8581;47.334;11.190;2022-11-15T08:59:05;2.17;;;0.77;;
16928;SDS011;8581;47.334;11.190;2022-11-15T09:01:37;3.20;;;0.80;;
16928;SDS011;8581;47.334;11.190;2022-11-15T09:04:09;1.00;;;0.90;;
16928;SDS011;8581;47.334;11.190;2022-11-15T09:06:40;1.10;;;0.80;;
16928;SDS011;8581;47.334;11.190;2022-11-15T09:09:12;2.70;;;0.93;;
16928;SDS011;8581;47.334;11.190;2022-11-15T09:11:43;1.30;;;0.97;;
16928;SDS011;8581;47.334;11.190;2022-11-15T09:14:15;2.43;;;0.90;;
16928;SDS011;8581;47.334;11.190;2022-11-15T09:16:46;1.10;;;0.87;;
16928;SDS011;8581;47.334;11.190;2022-11-15T09:19:18;5.00;;;1.07;;
16928;SDS011;8581;47.334;11.190;2022-11-15T09:21:50;2.10;;;0.70;;
16928;SDS011;8581;47.334;11.190;2022-11-15T09:24:21;2.83;;;0.77;;
16928;SDS011;8581;47.334;11.190;2022-11-15T09:26:53;0.60;;;0.60;;
16928;SDS011;8581;47.334;11.190;2022-11-15T09:29:24;1.10;;;0.80;;
16928;SDS011;8581;47.334;11.190;2022-11-15T09:31:56;1.03;;;0.60;;
16928;SDS011;8581;47.334;11.190;2022-11-15T09:34:28;1.27;;;0.80;;
16928;SDS011;8581;47.334;11.190;2022-11-15T09:36:59;1.13;;;0.73;;
16928;SDS011;8581;47.334;11.190;2022-11-15T09:39:31;0.60;;;0.60;;
16928;SDS011;8581;47.334;11.190;2022-11-15T09:42:07;1.37;;;0.70;;
16928;SDS011;8581;47.334;11.190;2022-11-15T09:44:59;0.90;;;0.70;;
16928;SDS011;8581;47.334;11.190;2022-11-15T09:48:07;0.60;;;0.60;;
16928;SDS011;8581;47.334;11.190;2022-11-15T09:50:37;2.97;;;0.90;;
16928;SDS011;8581;47.334;11.190;2022-11-15T09:53:10;2.20;;;0.70;;
16928;SDS011;8581;47.334;11.190;2022-11-15T09:55:43;2.03;;;0.80;;
16928;SDS011;8581;47.334;11.190;2022-11-15T09:58:16;1.03;;;0.73;;
16928;SDS011;8581;47.334;11.190;2022-11-15T10:00:47;2.63;;;0.70;;
16928;SDS011;8581;47.334;11.190;2022-11-15T10:03:23;2.63;;;1.10;;
16928;SDS011;8581;47.334;11.190;2022-11-15T10:05:56;2.43;;;0.80;;
16928;SDS011;8581;47.334;11.190;2022-11-15T10:08:31;1.13;;;0.80;;
16928;SDS011;8581;47.334;11.190;2022-11-15T10:11:01;2.10;;;0.60;;
16928;SDS011;8581;47.334;11.190;2022-11-15T10:13:33;1.47;;;0.70;;
16928;SDS011;8581;47.334;11.190;2022-11-15T10:16:10;1.17;;;0.60;;
16928;SDS011;8581;47.334;11.190;2022-11-15T10:21:25;1.10;;;0.70;;
16928;SDS011;8581;47.334;11.190;2022-11-15T10:23:55;1.23;;;0.80;;
16928;SDS011;8581;47.334;11.190;2022-11-15T10:26:26;0.83;;;0.83;;
16928;SDS011;8581;47.334;11.190;2022-11-15T10:28:58;3.07;;;0.90;;
16928;SDS011;8581;47.334;11.190;2022-11-15T10:31:29;1.30;;;0.70;;
16928;SDS011;8581;47.334;11.190;2022-11-15T10:34:20;3.37;;;0.70;;
16928;SDS011;8581;47.334;11.190;2022-11-15T10:36:54;0.80;;;0.80;;
16928;SDS011;8581;47.334;11.190;2022-11-15T10:39:25;0.70;;;0.70;;
16928;SDS011;8581;47.334;11.190;2022-11-15T10:41:57;0.70;;;0.67;;
16928;SDS011;8581;47.334;11.190;2022-11-15T10:44:29;1.33;;;0.90;;
16928;SDS011;8581;47.334;11.190;2022-11-15T10:47:05;0.60;;;0.60;;
16928;SDS011;8581;47.334;11.190;2022-11-15T10:49:35;1.97;;;0.70;;
16928;SDS011;8581;47.334;11.190;2022-11-15T10:52:13;1.95;;;0.80;;
16928;SDS011;8581;47.334;11.190;2022-11-15T10:54:48;1.80;;;0.90;;
16928;SDS011;8581;47.334;11.190;2022-11-15T10:57:19;2.37;;;0.90;;
16928;SDS011;8581;47.334;11.190;2022-11-15T10:59:52;1.87;;;0.70;;
16928;SDS011;8581;47.334;11.190;2022-11-15T11:02:28;1.65;;;1.00;;
16928;SDS011;8581;47.334;11.190;2022-11-15T11:05:00;7.08;;;1.07;;
16928;SDS011;8581;47.334;11.190;2022-11-15T11:07:32;2.60;;;0.90;;
16928;SDS011;8581;47.334;11.190;2022-11-15T11:10:05;1.87;;;0.90;;
16928;SDS011;8581;47.334;11.190;2022-11-15T11:12:34;2.00;;;0.85;;
16928;SDS011;8581;47.334;11.190;2022-11-15T11:15:09;1.52;;;0.90;;
16928;SDS011;8581;47.334;11.190;2022-11-15T11:17:48;1.22;;;0.90;;
16928;SDS011;8581;47.334;11.190;2022-11-15T11:20:21;1.95;;;0.80;;
16928;SDS011;8581;47.334;11.190;2022-11-15T11:23:03;1.37;;;0.70;;
16928;SDS011;8581;47.334;11.190;2022-11-15T11:25:40;0.82;;;0.82;;
16928;SDS011;8581;47.334;11.190;2022-11-15T11:28:19;1.35;;;0.90;;
16928;SDS011;8581;47.334;11.190;2022-11-15T11:30:53;2.42;;;0.90;;
16928;SDS011;8581;47.334;11.190;2022-11-15T11:33:30;1.52;;;0.90;;
16928;SDS011;8581;47.334;11.190;2022-11-15T11:36:05;1.60;;;1.10;;
16928;SDS011;8581;47.334;11.190;2022-11-15T11:38:44;0.95;;;0.82;;
16928;SDS011;8581;47.334;11.190;2022-11-15T11:41:23;2.72;;;0.80;;
16928;SDS011;8581;47.334;11.190;2022-11-15T11:45:03;1.25;;;1.05;;
16928;SDS011;8581;47.334;11.190;2022-11-15T11:46:59;1.98;;;1.17;;
16928;SDS011;8581;47.334;11.190;2022-11-15T11:52:16;2.15;;;1.15;;
16928;SDS011;8581;47.334;11.190;2022-11-15T11:55:02;1.72;;;0.90;;
16928;SDS011;8581;47.334;11.190;2022-11-15T11:57:49;1.62;;;0.90;;
16928;SDS011;8581;47.334;11.190;2022-11-15T12:00:24;1.15;;;0.93;;
16928;SDS011;8581;47.334;11.190;2022-11-15T12:05:50;2.77;;;1.00;;
16928;SDS011;8581;47.334;11.190;2022-11-15T12:08:24;0.82;;;0.80;;
16928;SDS011;8581;47.334;11.190;2022-11-15T12:10:59;1.17;;;1.00;;
16928;SDS011;8581;47.334;11.190;2022-11-15T12:13:28;1.57;;;0.90;;
16928;SDS011;8581;47.334;11.190;2022-11-15T12:16:02;2.87;;;0.90;;
16928;SDS011;8581;47.334;11.190;2022-11-15T12:18:32;4.22;;;1.10;;
16928;SDS011;8581;47.334;11.190;2022-11-15T12:21:07;1.07;;;0.90;;
16928;SDS011;8581;47.334;11.190;2022-11-15T12:23:40;2.62;;;0.80;;
16928;SDS011;8581;47.334;11.190;2022-11-15T12:26:11;3.00;;;0.80;;
16928;SDS011;8581;47.334;11.190;2022-11-15T12:28:45;3.12;;;0.93;;
16928;SDS011;8581;47.334;11.190;2022-11-15T12:31:19;3.12;;;1.10;;
16928;SDS011;8581;47.334;11.190;2022-11-15T12:36:48;1.98;;;1.00;;
16928;SDS011;8581;47.334;11.190;2022-11-15T12:39:20;1.42;;;0.90;;
16928;SDS011;8581;47.334;11.190;2022-11-15T12:44:57;1.15;;;0.80;;
16928;SDS011;8581;47.334;11.190;2022-11-15T12:47:29;2.60;;;0.82;;
16928;SDS011;8581;47.334;11.190;2022-11-15T12:50:00;2.25;;;0.72;;
16928;SDS011;8581;47.334;11.190;2022-11-15T12:52:32;0.95;;;0.85;;
16928;SDS011;8581;47.334;11.190;2022-11-15T12:55:08;3.42;;;0.80;;
16928;SDS011;8581;47.334;11.190;2022-11-15T12:57:36;1.57;;;1.00;;
16928;SDS011;8581;47.334;11.190;2022-11-15T13:00:39;4.58;;;0.82;;
16928;SDS011;8581;47.334;11.190;2022-11-15T13:03:18;4.10;;;1.15;;
16928;SDS011;8581;47.334;11.190;2022-11-15T13:05:52;4.28;;;1.07;;
16928;SDS011;8581;47.334;11.190;2022-11-15T13:13:49;2.20;;;1.02;;
16928;SDS011;8581;47.334;11.190;2022-11-15T13:16:21;3.10;;;1.10;;
16928;SDS011;8581;47.334;11.190;2022-11-15T13:18:53;1.55;;;0.98;;
16928;SDS011;8581;47.334;11.190;2022-11-15T13:21:24;1.45;;;0.90;;
16928;SDS011;8581;47.334;11.190;2022-11-15T13:24:02;1.20;;;0.90;;
16928;SDS011;8581;47.334;11.190;2022-11-15T13:26:33;9.78;;;1.37;;
16928;SDS011;8581;47.334;11.190;2022-11-15T13:29:12;2.12;;;0.93;;
16928;SDS011;8581;47.334;11.190;2022-11-15T13:31:37;2.92;;;0.90;;
16928;SDS011;8581;47.334;11.190;2022-11-15T13:34:15;1.30;;;0.90;;
16928;SDS011;8581;47.334;11.190;2022-11-15T13:36:48;1.98;;;0.98;;
16928;SDS011;8581;47.334;11.190;2022-11-15T13:39:27;4.65;;;0.80;;
16928;SDS011;8581;47.334;11.190;2022-11-15T13:41:58;2.77;;;1.00;;
16928;SDS011;8581;47.334;11.190;2022-11-15T13:44:30;1.30;;;0.90;;
16928;SDS011;8581;47.334;11.190;2022-11-15T13:47:02;1.55;;;0.95;;
16928;SDS011;8581;47.334;11.190;2022-11-15T13:49:34;2.95;;;1.10;;
16928;SDS011;8581;47.334;11.190;2022-11-15T13:52:06;1.12;;;0.93;;
16928;SDS011;8581;47.334;11.190;2022-11-15T13:54:42;2.95;;;1.25;;
16928;SDS011;8581;47.334;11.190;2022-11-15T13:57:18;1.80;;;0.98;;
16928;SDS011;8581;47.334;11.190;2022-11-15T13:59:47;1.57;;;0.90;;
16928;SDS011;8581;47.334;11.190;2022-11-15T14:02:26;3.75;;;1.10;;
16928;SDS011;8581;47.334;11.190;2022-11-15T14:04:58;1.65;;;1.00;;
16928;SDS011;8581;47.334;11.190;2022-11-15T14:07:31;2.05;;;0.98;;
16928;SDS011;8581;47.334;11.190;2022-11-15T14:12:50;1.30;;;1.00;;
16928;SDS011;8581;47.334;11.190;2022-11-15T14:15:25;1.50;;;1.00;;
16928;SDS011;8581;47.334;11.190;2022-11-15T14:18:38;1.32;;;0.93;;
16928;SDS011;8581;47.334;11.190;2022-11-15T14:20:44;1.95;;;1.00;;
16928;SDS011;8581;47.334;11.190;2022-11-15T14:23:19;1.35;;;0.88;;
16928;SDS011;8581;47.334;11.190;2022-11-15T14:25:52;1.85;;;1.10;;
16928;SDS011;8581;47.334;11.190;2022-11-15T14:28:31;3.23;;;0.90;;
16928;SDS011;8581;47.334;11.190;2022-11-15T14:31:06;4.13;;;1.17;;
16928;SDS011;8581;47.334;11.190;2022-11-15T14:33:36;1.57;;;1.10;;
16928;SDS011;8581;47.334;11.190;2022-11-15T14:36:11;2.40;;;1.10;;
16928;SDS011;8581;47.334;11.190;2022-11-15T14:38:44;4.17;;;2.10;;
16928;SDS011;8581;47.334;11.190;2022-11-15T14:41:17;3.87;;;2.20;;
16928;SDS011;8581;47.334;11.190;2022-11-15T14:43:49;6.10;;;2.23;;
16928;SDS011;8581;47.334;11.190;2022-11-15T14:46:20;3.27;;;1.37;;
16928;SDS011;8581;47.334;11.190;2022-11-15T14:48:52;1.47;;;1.10;;
16928;SDS011;8581;47.334;11.190;2022-11-15T14:51:23;1.40;;;1.27;;
16928;SDS011;8581;47.334;11.190;2022-11-15T14:53:55;1.60;;;1.50;;
16928;SDS011;8581;47.334;11.190;2022-11-15T14:56:27;2.47;;;1.60;;
16928;SDS011;8581;47.334;11.190;2022-11-15T14:58:58;3.52;;;1.80;;
16928;SDS011;8581;47.334;11.190;2022-11-15T15:01:30;2.20;;;1.50;;
16928;SDS011;8581;47.334;11.190;2022-11-15T15:04:01;2.13;;;1.30;;
16928;SDS011;8581;47.334;11.190;2022-11-15T15:06:33;2.77;;;1.50;;
16928;SDS011;8581;47.334;11.190;2022-11-15T15:09:05;5.27;;;1.60;;
16928;SDS011;8581;47.334;11.190;2022-11-15T15:11:36;2.37;;;1.30;;
16928;SDS011;8581;47.334;11.190;2022-11-15T15:14:08;2.83;;;1.60;;
16928;SDS011;8581;47.334;11.190;2022-11-15T15:16:39;2.10;;;1.63;;
16928;SDS011;8581;47.334;11.190;2022-11-15T15:19:11;2.77;;;1.67;;
16928;SDS011;8581;47.334;11.190;2022-11-15T15:21:43;4.87;;;1.90;;
16928;SDS011;8581;47.334;11.190;2022-11-15T15:24:14;2.87;;;1.67;;
16928;SDS011;8581;47.334;11.190;2022-11-15T15:26:46;3.83;;;1.50;;
16928;SDS011;8581;47.334;11.190;2022-11-15T15:29:17;1.13;;;1.03;;
16928;SDS011;8581;47.334;11.190;2022-11-15T15:31:49;4.93;;;1.43;;
16928;SDS011;8581;47.334;11.190;2022-11-15T15:34:21;3.40;;;1.60;;
16928;SDS011;8581;47.334;11.190;2022-11-15T15:39:36;6.60;;;1.70;;
16928;SDS011;8581;47.334;11.190;2022-11-15T15:42:07;6.13;;;1.50;;
16928;SDS011;8581;47.334;11.190;2022-11-15T15:44:39;7.87;;;1.70;;
16928;SDS011;8581;47.334;11.190;2022-11-15T15:47:11;5.80;;;3.23;;
16928;SDS011;8581;47.334;11.190;2022-11-15T15:49:42;9.33;;;3.37;;
16928;SDS011;8581;47.334;11.190;2022-11-15T15:52:14;7.03;;;3.70;;
16928;SDS011;8581;47.334;11.190;2022-11-15T15:54:45;6.17;;;3.40;;
16928;SDS011;8581;47.334;11.190;2022-11-15T15:57:17;10.20;;;4.07;;
16928;SDS011;8581;47.334;11.190;2022-11-15T15:59:48;9.80;;;6.93;;